Weather at Murai Airfield

Public forecast

Using degrees Celsius for public forecast. Weather courtesy of forecast.io.

Closest aviation weather report (METAR) to Murai Airfield

Closest report is Seletar Airport, 10.1 nm (18.8 km) E.

2024/05/29 02:00 (retrieved 33 minutes ago)

WSSL 290200Z 18007KT 9999 FEW018TCU SCT160 BKN300 31/26 Q1010

Closest aviation forecast (TAF) to Murai Airfield

Forecast is more than 12 hours old.

Closest forecast is Aden Adde International Airport, 3,504.5 nm (6,490.4 km) W.

2024/05/27 12:54 (retrieved 2 days ago)

TAF HCMM 271100Z 2712/2818 23020KT 9999 FEW025 TEMPO 2800/2804 22015KT DZ BKN024 BECMG 2810/2813 NSW FEW026